createdAt,value
2022-12-18T00:00:09.307Z,2.63
2022-12-18T00:02:37.614Z,2.61
2022-12-18T00:05:06.329Z,2.57
2022-12-18T00:07:34.453Z,2.58
2022-12-18T00:10:02.625Z,2.58
2022-12-18T00:12:30.870Z,2.61
2022-12-18T00:14:58.893Z,2.59
2022-12-18T00:17:28.331Z,2.56
2022-12-18T00:19:56.406Z,2.60
2022-12-18T00:22:24.475Z,2.63
2022-12-18T00:24:52.632Z,2.68
2022-12-18T00:27:20.706Z,2.72
2022-12-18T00:29:50.358Z,2.76
2022-12-18T00:32:18.591Z,2.85
2022-12-18T00:34:48.007Z,2.88
2022-12-18T00:37:20.071Z,2.87
2022-12-18T00:39:50.648Z,2.81
2022-12-18T00:42:36.444Z,2.76
2022-12-18T00:45:10.674Z,2.75
2022-12-18T00:47:40.521Z,2.76
2022-12-18T00:50:11.712Z,2.73
2022-12-18T00:52:39.809Z,2.74
2022-12-18T00:55:08.647Z,2.72
2022-12-18T00:57:36.813Z,2.71
2022-12-18T01:00:06.318Z,2.67
2022-12-18T01:02:34.544Z,2.63
2022-12-18T01:05:02.874Z,2.62
2022-12-18T01:07:32.444Z,2.58
2022-12-18T01:10:00.498Z,2.58
2022-12-18T01:12:28.600Z,2.49
2022-12-18T01:14:56.783Z,2.41
2022-12-18T01:17:24.957Z,2.36
2022-12-18T01:19:53.046Z,2.26
2022-12-18T01:22:21.259Z,2.19
2022-12-18T01:24:50.928Z,2.14
2022-12-18T01:27:18.968Z,2.09
2022-12-18T01:29:47.011Z,2.04
2022-12-18T01:32:15.019Z,2.05
2022-12-18T01:34:43.118Z,1.97
2022-12-18T01:37:11.690Z,1.97
2022-12-18T01:39:40.172Z,2.07
2022-12-18T01:42:14.070Z,2.13
2022-12-18T01:44:59.403Z,2.15
2022-12-18T01:47:30.921Z,2.22
2022-12-18T01:50:01.696Z,2.24
2022-12-18T01:52:34.298Z,2.34
2022-12-18T01:55:04.352Z,2.40
2022-12-18T01:57:34.248Z,2.47
2022-12-18T02:00:07.235Z,2.51
2022-12-18T02:02:35.692Z,2.56
2022-12-18T02:05:05.447Z,2.49
2022-12-18T02:07:44.986Z,2.38
2022-12-18T02:10:17.756Z,2.35
2022-12-18T02:12:53.875Z,2.27
2022-12-18T02:15:28.309Z,2.23
2022-12-18T02:18:02.129Z,2.21
2022-12-18T02:20:38.034Z,2.12
2022-12-18T02:23:22.323Z,2.05
2022-12-18T02:26:08.810Z,1.98
2022-12-18T02:28:43.439Z,1.94
2022-12-18T02:31:16.357Z,1.89
2022-12-18T02:33:47.105Z,1.82
2022-12-18T02:36:16.975Z,1.91
2022-12-18T02:38:46.862Z,1.96
2022-12-18T02:41:18.370Z,1.96
2022-12-18T02:43:50.038Z,2.02
2022-12-18T02:46:32.871Z,2.01
2022-12-18T02:49:08.947Z,2.01
2022-12-18T02:51:45.265Z,1.93
2022-12-18T02:54:23.272Z,1.96
2022-12-18T02:56:56.622Z,1.96
2022-12-18T02:59:31.613Z,2.00
2022-12-18T03:02:05.204Z,1.95
2022-12-18T03:04:41.747Z,1.96
2022-12-18T03:07:13.703Z,2.02
2022-12-18T03:09:46.761Z,2.10
2022-12-18T03:12:26.979Z,2.17
2022-12-18T03:15:02.101Z,2.15
2022-12-18T03:17:33.127Z,2.01
2022-12-18T03:20:05.504Z,1.91
2022-12-18T03:22:36.239Z,1.86
2022-12-18T03:25:08.400Z,1.77
2022-12-18T03:27:40.757Z,1.73
2022-12-18T03:30:13.400Z,1.68
2022-12-18T03:32:45.419Z,1.70
2022-12-18T03:35:16.560Z,1.72
2022-12-18T03:37:44.700Z,1.70
2022-12-18T03:40:13.491Z,1.66
2022-12-18T03:42:52.092Z,1.56
2022-12-18T03:45:25.734Z,1.45
2022-12-18T03:48:03.405Z,1.43
2022-12-18T03:50:40.741Z,1.41
2022-12-18T03:53:22.351Z,1.39
2022-12-18T03:55:52.657Z,1.37
2022-12-18T03:58:25.589Z,1.33
2022-12-18T04:00:56.712Z,1.29
2022-12-18T04:03:26.941Z,1.31
2022-12-18T04:05:57.620Z,1.29
2022-12-18T04:08:27.023Z,1.28
2022-12-18T04:10:55.342Z,1.23
2022-12-18T04:13:31.893Z,1.13
2022-12-18T04:16:00.034Z,1.07
2022-12-18T04:18:28.126Z,1.10
2022-12-18T04:20:56.700Z,1.12
2022-12-18T04:23:25.061Z,1.15
2022-12-18T04:25:53.192Z,1.21
2022-12-18T04:28:21.396Z,1.25
2022-12-18T04:30:51.701Z,1.26
2022-12-18T04:33:20.280Z,1.24
2022-12-18T04:35:48.355Z,1.24
2022-12-18T04:38:16.595Z,1.26
2022-12-18T04:40:44.814Z,1.35
2022-12-18T04:43:13.088Z,1.43
2022-12-18T04:45:41.681Z,1.45
2022-12-18T04:48:11.155Z,1.55
2022-12-18T04:50:39.603Z,1.61
2022-12-18T04:53:09.162Z,1.61
2022-12-18T04:55:38.087Z,1.61
2022-12-18T04:58:06.838Z,1.57
2022-12-18T05:00:35.015Z,1.41
2022-12-18T05:03:03.668Z,1.31
2022-12-18T05:05:33.391Z,1.22
2022-12-18T05:08:02.257Z,1.21
2022-12-18T05:10:37.543Z,1.22
2022-12-18T05:13:06.368Z,1.21
2022-12-18T05:15:35.440Z,1.21
2022-12-18T05:18:04.849Z,1.14
2022-12-18T05:20:34.378Z,1.07
2022-12-18T05:23:02.569Z,0.94
2022-12-18T05:25:30.782Z,0.83
2022-12-18T05:27:59.375Z,0.75
2022-12-18T05:30:28.594Z,0.67
2022-12-18T05:32:56.821Z,0.54
2022-12-18T05:35:24.889Z,0.50
2022-12-18T05:37:54.325Z,0.55
2022-12-18T05:40:22.343Z,0.63
2022-12-18T05:42:50.327Z,0.67
2022-12-18T05:45:18.666Z,0.63
2022-12-18T05:47:46.769Z,0.56
2022-12-18T05:50:14.984Z,0.49
2022-12-18T05:52:43.042Z,0.47
2022-12-18T05:55:13.190Z,0.43
2022-12-18T05:57:41.333Z,0.44
2022-12-18T06:00:10.920Z,0.43
2022-12-18T06:02:39.097Z,0.43
2022-12-18T06:05:08.157Z,0.43
2022-12-18T06:07:36.344Z,0.42
2022-12-18T06:10:04.742Z,0.42
2022-12-18T06:12:34.930Z,0.34
2022-12-18T06:15:03.384Z,0.33
2022-12-18T06:17:32.013Z,0.35
2022-12-18T06:20:00.140Z,0.36
2022-12-18T06:22:28.316Z,0.32
2022-12-18T06:24:56.310Z,0.28
2022-12-18T06:27:24.518Z,0.32
2022-12-18T06:29:53.978Z,0.37
2022-12-18T06:32:22.129Z,0.40
2022-12-18T06:34:50.136Z,0.42
2022-12-18T06:37:18.110Z,0.40
2022-12-18T06:39:46.112Z,0.39
2022-12-18T06:42:14.186Z,0.37
2022-12-18T06:44:42.386Z,0.35
2022-12-18T06:47:12.075Z,0.30
2022-12-18T06:49:40.146Z,0.26
2022-12-18T06:52:08.205Z,0.24
2022-12-18T06:54:36.263Z,0.26
2022-12-18T06:57:04.346Z,0.30
2022-12-18T06:59:32.407Z,0.36
2022-12-18T07:02:00.551Z,0.37
2022-12-18T07:04:31.750Z,0.41
2022-12-18T07:07:00.128Z,0.44
2022-12-18T07:09:31.034Z,0.49
2022-12-18T07:11:59.184Z,0.55
2022-12-18T07:14:27.689Z,0.56
2022-12-18T07:16:55.851Z,0.50
2022-12-18T07:19:26.659Z,0.45
2022-12-18T07:21:56.139Z,0.39
2022-12-18T07:24:24.172Z,0.36
2022-12-18T07:26:52.247Z,0.37
2022-12-18T07:29:20.612Z,0.39
2022-12-18T07:31:48.754Z,0.39
2022-12-18T07:34:17.536Z,0.34
2022-12-18T07:36:45.650Z,0.35
2022-12-18T07:39:15.066Z,0.38
2022-12-18T07:41:47.579Z,0.42
2022-12-18T07:44:15.990Z,0.41
2022-12-18T07:46:44.093Z,0.39
2022-12-18T07:49:12.318Z,0.39
2022-12-18T07:51:40.439Z,0.32
2022-12-18T07:54:08.581Z,0.36
2022-12-18T07:56:38.045Z,0.30
2022-12-18T07:59:06.142Z,0.29
2022-12-18T08:01:35.133Z,0.28
2022-12-18T08:04:03.203Z,0.33
2022-12-18T08:06:31.912Z,0.49
2022-12-18T08:09:00.191Z,0.67
2022-12-18T08:11:30.111Z,0.84
2022-12-18T08:14:00.596Z,0.91
2022-12-18T08:16:35.304Z,0.95
2022-12-18T08:19:03.508Z,1.05
2022-12-18T08:21:32.947Z,1.04
2022-12-18T08:24:02.827Z,0.99
2022-12-18T08:26:33.394Z,1.05
2022-12-18T08:29:03.169Z,1.04
2022-12-18T08:31:32.748Z,1.12
2022-12-18T08:34:00.964Z,1.18
2022-12-18T08:36:29.169Z,1.25
2022-12-18T08:38:57.523Z,1.36
2022-12-18T08:41:26.027Z,1.35
2022-12-18T08:44:11.872Z,1.27
2022-12-18T08:46:43.554Z,1.21
2022-12-18T08:49:13.160Z,1.14
2022-12-18T08:51:41.649Z,1.13
2022-12-18T08:54:10.135Z,1.09
2022-12-18T08:56:38.580Z,1.14
2022-12-18T08:59:06.693Z,1.11
2022-12-18T09:01:35.500Z,0.95
2022-12-18T09:04:05.411Z,0.95
2022-12-18T09:06:35.780Z,0.98
2022-12-18T09:09:05.596Z,0.99
2022-12-18T09:11:34.945Z,0.93
2022-12-18T09:14:03.999Z,0.89
2022-12-18T09:16:36.066Z,0.87
2022-12-18T09:19:07.815Z,0.87
2022-12-18T09:21:37.611Z,0.85
2022-12-18T09:24:08.675Z,0.84
2022-12-18T09:26:37.469Z,0.88
2022-12-18T09:29:05.949Z,0.95
2022-12-18T09:31:34.129Z,1.01
2022-12-18T09:34:02.271Z,1.05
2022-12-18T09:36:31.760Z,1.10
2022-12-18T09:39:03.733Z,1.13
2022-12-18T09:41:45.140Z,1.20
2022-12-18T09:44:21.086Z,1.29
2022-12-18T09:46:54.814Z,1.41
2022-12-18T09:49:27.420Z,1.49
2022-12-18T09:52:02.187Z,1.53
2022-12-18T09:54:38.090Z,1.61
2022-12-18T09:57:06.689Z,1.72
2022-12-18T09:59:38.404Z,1.79
2022-12-18T10:02:23.404Z,1.85
2022-12-18T10:05:05.078Z,1.88
2022-12-18T10:07:45.116Z,1.85
2022-12-18T10:10:25.159Z,1.87
2022-12-18T10:13:04.753Z,1.85
2022-12-18T10:15:40.061Z,1.83
2022-12-18T10:18:24.438Z,1.74
2022-12-18T10:20:57.608Z,1.69
2022-12-18T10:23:33.943Z,1.59
2022-12-18T10:26:05.879Z,1.71
2022-12-18T10:28:36.143Z,1.66
2022-12-18T10:31:04.465Z,1.81
2022-12-18T10:33:34.804Z,1.95
2022-12-18T10:36:03.957Z,1.88
2022-12-18T10:38:34.354Z,2.02
2022-12-18T10:41:04.602Z,2.05
2022-12-18T10:43:34.548Z,1.95
2022-12-18T10:46:15.593Z,1.84
2022-12-18T10:48:54.127Z,1.75
2022-12-18T10:51:25.181Z,1.90
2022-12-18T10:54:02.097Z,1.94
2022-12-18T10:56:32.796Z,2.16
2022-12-18T10:59:03.449Z,2.30
2022-12-18T11:01:49.635Z,2.39
2022-12-18T11:04:21.781Z,2.56
2022-12-18T11:07:01.245Z,2.67
2022-12-18T11:09:32.929Z,2.79
2022-12-18T11:12:03.274Z,3.03
2022-12-18T11:14:34.763Z,3.17
2022-12-18T11:17:24.897Z,3.32
2022-12-18T11:19:56.266Z,3.44
2022-12-18T11:22:28.908Z,3.52
2022-12-18T11:25:31.261Z,3.60
2022-12-18T11:27:53.063Z,3.72
2022-12-18T11:30:25.992Z,3.89
2022-12-18T11:33:00.043Z,4.05
2022-12-18T11:35:44.946Z,4.22
2022-12-18T11:38:23.867Z,4.48
2022-12-18T11:40:58.695Z,4.59
2022-12-18T11:43:32.105Z,4.78
2022-12-18T11:46:06.060Z,4.88
2022-12-18T11:48:39.801Z,5.03
2022-12-18T11:51:16.933Z,5.02
2022-12-18T11:53:45.287Z,5.11
2022-12-18T11:56:31.060Z,5.32
2022-12-18T11:59:11.921Z,5.51
2022-12-18T12:01:51.267Z,5.62
2022-12-18T12:04:51.772Z,5.57
2022-12-18T12:07:40.413Z,5.71
2022-12-18T12:10:26.583Z,5.72
2022-12-18T12:13:11.775Z,5.75
2022-12-18T12:15:51.445Z,5.83
2022-12-18T12:18:30.517Z,5.89
2022-12-18T12:21:05.915Z,6.03
2022-12-18T12:23:45.335Z,6.13
2022-12-18T12:26:20.534Z,6.29
2022-12-18T12:29:10.443Z,6.38
2022-12-18T12:31:50.431Z,6.40
2022-12-18T12:34:22.674Z,6.49
2022-12-18T12:37:05.507Z,6.52
2022-12-18T12:39:38.196Z,6.54
2022-12-18T12:42:40.100Z,6.58
2022-12-18T12:45:23.225Z,6.62
2022-12-18T12:47:53.990Z,6.69
2022-12-18T12:50:24.056Z,6.64
2022-12-18T12:52:55.676Z,6.57
2022-12-18T12:55:26.311Z,6.56
2022-12-18T12:58:05.286Z,6.51
2022-12-18T13:00:42.178Z,6.43
2022-12-18T13:03:19.698Z,6.40
2022-12-18T13:05:53.256Z,6.35
2022-12-18T13:08:26.855Z,6.35
2022-12-18T13:11:13.125Z,6.35
2022-12-18T13:13:52.022Z,6.35
2022-12-18T13:16:24.082Z,6.36
2022-12-18T13:18:53.755Z,6.37
2022-12-18T13:21:26.133Z,6.37
2022-12-18T13:23:55.016Z,6.37
2022-12-18T13:26:41.009Z,6.38
2022-12-18T13:29:09.221Z,6.38
2022-12-18T13:32:24.909Z,6.40
2022-12-18T13:35:27.258Z,6.38
2022-12-18T13:37:57.259Z,6.34
2022-12-18T13:40:58.912Z,6.33
2022-12-18T13:43:44.831Z,6.30
2022-12-18T13:46:25.061Z,6.27
2022-12-18T13:48:58.138Z,6.27
2022-12-18T13:51:27.858Z,6.23
2022-12-18T13:53:59.159Z,6.23
2022-12-18T13:56:29.626Z,6.24
2022-12-18T13:59:19.326Z,6.29
2022-12-18T14:01:55.732Z,6.32
2022-12-18T14:04:28.831Z,6.37
2022-12-18T14:07:00.976Z,6.40
2022-12-18T14:09:33.282Z,6.41
2022-12-18T14:12:20.214Z,6.41
2022-12-18T14:14:55.007Z,6.43
2022-12-18T14:17:25.002Z,6.47
2022-12-18T14:19:54.981Z,6.49
2022-12-18T14:22:28.834Z,6.54
2022-12-18T14:25:16.666Z,6.55
2022-12-18T14:27:46.680Z,6.53
2022-12-18T14:30:32.095Z,6.54
2022-12-18T14:33:07.796Z,6.53
2022-12-18T14:35:40.510Z,6.45
2022-12-18T14:38:27.245Z,6.32
2022-12-18T14:40:56.942Z,6.22
2022-12-18T14:43:25.106Z,6.32
2022-12-18T14:45:54.074Z,6.22
2022-12-18T14:48:28.075Z,6.24
2022-12-18T14:51:03.563Z,6.21
2022-12-18T14:53:37.677Z,6.28
2022-12-18T14:56:16.684Z,6.24
2022-12-18T14:58:51.074Z,6.20
2022-12-18T15:01:25.272Z,6.16
2022-12-18T15:03:54.290Z,6.11
2022-12-18T15:06:33.402Z,6.14
2022-12-18T15:09:03.454Z,6.02
2022-12-18T15:11:37.088Z,6.00
2022-12-18T15:14:34.335Z,5.89
2022-12-18T15:17:04.331Z,5.81
2022-12-18T15:19:39.133Z,5.79
2022-12-18T15:22:19.853Z,5.72
2022-12-18T15:24:48.955Z,5.72
2022-12-18T15:27:29.905Z,5.72
2022-12-18T15:30:21.103Z,5.70
2022-12-18T15:32:50.394Z,5.66
2022-12-18T15:35:21.298Z,5.60
2022-12-18T15:37:51.290Z,5.59
2022-12-18T15:40:21.499Z,5.58
2022-12-18T15:43:08.113Z,5.53
2022-12-18T15:45:36.327Z,5.57
2022-12-18T15:48:04.607Z,5.60
2022-12-18T15:50:32.769Z,5.61
2022-12-18T15:53:02.266Z,5.61
2022-12-18T15:55:48.496Z,5.59
2022-12-18T15:58:16.658Z,5.56
2022-12-18T16:00:44.731Z,5.53
2022-12-18T16:03:14.978Z,5.53
2022-12-18T16:05:43.161Z,5.53
2022-12-18T16:08:12.491Z,5.51
2022-12-18T16:10:40.571Z,5.44
2022-12-18T16:13:11.687Z,5.39
2022-12-18T16:15:39.769Z,5.27
2022-12-18T16:18:07.914Z,5.24
2022-12-18T16:20:35.945Z,5.20
2022-12-18T16:23:03.987Z,5.18
2022-12-18T16:25:34.055Z,5.15
2022-12-18T16:28:02.231Z,5.09
2022-12-18T16:30:36.225Z,5.03
2022-12-18T16:33:07.695Z,5.00
2022-12-18T16:35:38.177Z,5.00
2022-12-18T16:38:06.584Z,5.02
2022-12-18T16:40:56.059Z,5.03
2022-12-18T16:43:24.271Z,5.03
2022-12-18T16:45:52.379Z,4.97
2022-12-18T16:48:20.400Z,4.91
2022-12-18T16:50:48.377Z,4.87
2022-12-18T16:53:16.403Z,4.82
2022-12-18T16:55:46.241Z,4.79
2022-12-18T16:58:14.250Z,4.76
2022-12-18T17:00:42.493Z,4.75
2022-12-18T17:03:10.885Z,4.69
2022-12-18T17:05:40.521Z,4.81
2022-12-18T17:08:08.895Z,4.78
2022-12-18T17:10:38.148Z,4.66
2022-12-18T17:13:07.886Z,4.68
2022-12-18T17:15:36.766Z,4.53
2022-12-18T17:18:05.579Z,4.49
2022-12-18T17:20:33.725Z,4.57
2022-12-18T17:23:01.865Z,4.48
2022-12-18T17:25:31.251Z,4.50
2022-12-18T17:27:59.389Z,4.51
2022-12-18T17:30:29.062Z,4.34
2022-12-18T17:32:57.202Z,4.40
2022-12-18T17:35:25.432Z,4.26
2022-12-18T17:37:53.629Z,4.26
2022-12-18T17:40:21.781Z,4.29
2022-12-18T17:42:51.474Z,4.33
2022-12-18T17:45:19.968Z,4.26
2022-12-18T17:47:49.713Z,4.22
2022-12-18T17:50:18.120Z,4.36
2022-12-18T17:52:46.442Z,4.27
2022-12-18T17:55:14.611Z,4.41
2022-12-18T17:57:43.027Z,4.28
2022-12-18T18:00:12.678Z,4.19
2022-12-18T18:02:41.168Z,4.26
2022-12-18T18:05:12.022Z,4.22
2022-12-18T18:07:42.374Z,4.21
2022-12-18T18:10:11.073Z,4.21
2022-12-18T18:12:56.598Z,4.21
2022-12-18T18:15:24.716Z,4.21
2022-12-18T18:17:52.903Z,4.21
2022-12-18T18:20:22.930Z,4.26
2022-12-18T18:22:51.157Z,4.29
2022-12-18T18:25:19.289Z,4.28
2022-12-18T18:27:47.765Z,4.26
2022-12-18T18:30:16.519Z,4.21
2022-12-18T18:32:44.615Z,4.26
2022-12-18T18:35:30.907Z,4.33
2022-12-18T18:38:04.339Z,4.38
2022-12-18T18:40:32.419Z,4.38
2022-12-18T18:43:00.588Z,4.33
2022-12-18T18:45:30.047Z,4.33
2022-12-18T18:47:58.977Z,4.35
2022-12-18T18:50:27.527Z,4.28
2022-12-18T18:52:55.613Z,4.19
2022-12-18T18:55:25.515Z,4.16
2022-12-18T18:57:53.940Z,4.15
2022-12-18T19:00:22.051Z,4.13
2022-12-18T19:02:51.584Z,4.08
2022-12-18T19:05:22.336Z,4.03
2022-12-18T19:07:50.486Z,4.04
2022-12-18T19:10:18.646Z,3.93
2022-12-18T19:13:05.494Z,3.80
2022-12-18T19:15:34.811Z,3.73
2022-12-18T19:18:02.876Z,3.82
2022-12-18T19:20:31.552Z,3.84
2022-12-18T19:22:59.618Z,3.85
2022-12-18T19:25:40.386Z,3.85
2022-12-18T19:28:18.980Z,3.78
2022-12-18T19:30:55.374Z,3.61
2022-12-18T19:33:44.326Z,3.48
2022-12-18T19:36:15.347Z,3.38
2022-12-18T19:38:43.710Z,3.40
2022-12-18T19:41:13.927Z,3.46
2022-12-18T19:43:44.811Z,3.44
2022-12-18T19:46:16.273Z,3.49
2022-12-18T19:48:46.336Z,3.47
2022-12-18T19:51:17.512Z,3.47
2022-12-18T19:53:45.890Z,3.51
2022-12-18T19:56:16.043Z,3.55
2022-12-18T19:58:46.046Z,3.56
2022-12-18T20:01:16.665Z,3.54
2022-12-18T20:03:51.588Z,3.68
2022-12-18T20:06:26.246Z,3.76
2022-12-18T20:09:00.650Z,3.85
2022-12-18T20:11:29.458Z,3.90
2022-12-18T20:13:59.543Z,3.95
2022-12-18T20:16:27.871Z,4.04
2022-12-18T20:18:56.292Z,4.08
2022-12-18T20:21:25.376Z,4.05
2022-12-18T20:23:54.596Z,4.00
2022-12-18T20:26:23.154Z,4.06
2022-12-18T20:28:51.726Z,4.01
2022-12-18T20:31:21.314Z,3.98
2022-12-18T20:33:50.939Z,3.92
2022-12-18T20:36:23.367Z,3.83
2022-12-18T20:38:55.291Z,3.70
2022-12-18T20:41:26.224Z,3.61
2022-12-18T20:43:58.714Z,3.60
2022-12-18T20:46:28.253Z,3.61
2022-12-18T20:48:56.476Z,3.66
2022-12-18T20:51:24.613Z,3.71
2022-12-18T20:53:53.506Z,3.78
2022-12-18T20:56:23.347Z,3.84
2022-12-18T20:58:54.846Z,3.89
2022-12-18T21:01:24.568Z,3.92
2022-12-18T21:03:54.998Z,3.94
2022-12-18T21:06:24.480Z,3.99
2022-12-18T21:08:53.172Z,4.11
2022-12-18T21:11:46.932Z,4.26
2022-12-18T21:14:17.343Z,4.39
2022-12-18T21:16:46.132Z,4.48
2022-12-18T21:19:19.034Z,4.57
2022-12-18T21:21:47.356Z,4.69
2022-12-18T21:24:15.626Z,4.79
2022-12-18T21:26:46.168Z,4.81
2022-12-18T21:29:15.927Z,4.89
2022-12-18T21:31:44.493Z,4.93
2022-12-18T21:34:18.319Z,4.92
2022-12-18T21:36:47.228Z,4.88
2022-12-18T21:39:17.265Z,4.89
2022-12-18T21:42:03.253Z,4.90
2022-12-18T21:44:32.797Z,4.88
2022-12-18T21:47:20.904Z,4.91
2022-12-18T21:49:53.362Z,4.94
2022-12-18T21:52:32.297Z,4.93
2022-12-18T21:55:07.970Z,4.91
2022-12-18T21:57:37.743Z,4.86
2022-12-18T22:00:06.955Z,4.81
2022-12-18T22:02:35.132Z,4.90
2022-12-18T22:05:04.927Z,4.97
2022-12-18T22:07:33.216Z,5.07
2022-12-18T22:10:02.214Z,5.15
2022-12-18T22:12:43.414Z,5.09
2022-12-18T22:15:21.300Z,4.95
2022-12-18T22:17:50.635Z,4.84
2022-12-18T22:20:20.571Z,4.78
2022-12-18T22:22:51.604Z,4.77
2022-12-18T22:25:20.122Z,4.78
2022-12-18T22:28:08.253Z,4.76
2022-12-18T22:30:35.498Z,4.82
2022-12-18T22:33:03.943Z,4.93
2022-12-18T22:35:33.448Z,5.02
2022-12-18T22:38:02.671Z,5.09
2022-12-18T22:40:31.169Z,5.16
2022-12-18T22:42:59.512Z,5.20
2022-12-18T22:45:27.986Z,5.19
2022-12-18T22:47:56.246Z,5.14
2022-12-18T22:50:24.397Z,5.07
2022-12-18T22:52:53.804Z,5.07
2022-12-18T22:55:21.802Z,5.11
2022-12-18T22:57:50.982Z,5.17
2022-12-18T23:00:22.782Z,5.24
2022-12-18T23:02:59.418Z,5.30
2022-12-18T23:05:30.067Z,5.26
2022-12-18T23:07:59.780Z,5.26
2022-12-18T23:10:28.795Z,5.24
2022-12-18T23:12:56.826Z,5.25
2022-12-18T23:15:28.081Z,5.28
2022-12-18T23:17:58.680Z,5.28
2022-12-18T23:20:27.507Z,5.24
2022-12-18T23:22:55.503Z,5.30
2022-12-18T23:25:24.894Z,5.37
2022-12-18T23:27:53.050Z,5.39
2022-12-18T23:30:21.155Z,5.44
2022-12-18T23:32:49.339Z,5.49
2022-12-18T23:35:17.664Z,5.55
2022-12-18T23:38:01.217Z,5.57
2022-12-18T23:40:31.282Z,5.59
2022-12-18T23:43:01.244Z,5.54
2022-12-18T23:45:29.378Z,5.55
2022-12-18T23:47:57.487Z,5.57
2022-12-18T23:50:29.073Z,5.65
2022-12-18T23:53:05.185Z,5.72
2022-12-18T23:55:40.713Z,5.70
2022-12-18T23:58:16.202Z,5.72
